createdAt,value
2019-05-12T00:01:00.982Z,76.10
2019-05-12T00:03:29.775Z,75.64
2019-05-12T00:10:35.264Z,75.75
2019-05-12T00:16:38.362Z,78.47
2019-05-12T00:19:10.739Z,77.86
2019-05-12T00:21:40.065Z,77.18
2019-05-12T00:27:41.659Z,78.62
2019-05-12T00:33:20.308Z,77.52
2019-05-12T00:35:49.641Z,76.52
2019-05-12T00:41:58.693Z,76.57
2019-05-12T00:44:33.593Z,77.41
2019-05-12T00:53:43.536Z,77.49
2019-05-12T00:56:22.636Z,79.62
2019-05-12T00:58:54.238Z,80.58
2019-05-12T01:01:23.454Z,81.21
2019-05-12T01:03:52.567Z,81.34
2019-05-12T01:06:22.536Z,82.31
2019-05-12T01:08:51.591Z,82.40
2019-05-12T01:11:20.360Z,81.78
2019-05-12T01:13:49.265Z,82.41
2019-05-12T01:16:18.411Z,82.79
2019-05-12T01:18:47.989Z,82.76
2019-05-12T01:21:18.504Z,83.47
2019-05-12T01:23:56.363Z,83.39
2019-05-12T01:26:18.110Z,83.52
2019-05-12T01:28:48.788Z,83.52
2019-05-12T01:31:19.042Z,83.41
2019-05-12T01:33:48.603Z,84.05
2019-05-12T01:36:18.601Z,84.65
2019-05-12T01:38:48.327Z,83.72
2019-05-12T01:41:18.030Z,84.02
2019-05-12T01:43:49.925Z,83.73
2019-05-12T01:46:18.940Z,83.66
2019-05-12T01:48:48.377Z,84.34
2019-05-12T01:51:17.864Z,85.03
2019-05-12T01:53:48.283Z,84.97
2019-05-12T01:56:18.223Z,84.85
2019-05-12T01:58:48.497Z,85.03
2019-05-12T02:01:18.508Z,84.52
2019-05-12T02:03:48.084Z,85.02
2019-05-12T02:06:18.568Z,85.79
2019-05-12T02:08:52.429Z,85.98
2019-05-12T02:11:33.490Z,85.29
2019-05-12T02:14:03.572Z,85.31
2019-05-12T02:16:32.519Z,86.22
2019-05-12T02:19:01.399Z,86.42
2019-05-12T02:21:30.240Z,86.13
2019-05-12T02:23:59.218Z,85.84
2019-05-12T02:26:29.028Z,85.95
2019-05-12T02:28:58.611Z,86.40
2019-05-12T02:31:29.551Z,86.30
2019-05-12T02:33:58.087Z,86.67
2019-05-12T02:36:28.004Z,86.75
2019-05-12T02:38:56.859Z,86.52
2019-05-12T02:41:26.311Z,87.07
2019-05-12T02:43:58.105Z,86.51
2019-05-12T02:46:27.213Z,87.32
2019-05-12T02:48:55.979Z,87.23
2019-05-12T02:51:25.173Z,86.78
2019-05-12T02:53:55.452Z,87.61
2019-05-12T02:56:26.157Z,87.46
2019-05-12T02:58:55.954Z,88.21
2019-05-12T03:01:28.170Z,87.99
2019-05-12T03:03:58.379Z,87.93
2019-05-12T03:06:29.462Z,88.16
2019-05-12T03:09:04.855Z,88.61
2019-05-12T03:11:35.457Z,88.42
2019-05-12T03:14:04.262Z,88.57
2019-05-12T03:16:34.967Z,87.99
2019-05-12T03:19:04.936Z,88.73
2019-05-12T03:21:35.153Z,88.70
2019-05-12T03:24:06.137Z,88.62
2019-05-12T03:26:35.404Z,88.83
2019-05-12T03:29:05.601Z,88.98
2019-05-12T03:31:39.718Z,88.16
2019-05-12T03:34:09.808Z,88.44
2019-05-12T03:36:41.831Z,88.11
2019-05-12T03:39:08.327Z,87.72
2019-05-12T03:41:37.296Z,88.43
2019-05-12T03:44:07.163Z,88.44
2019-05-12T03:46:35.960Z,88.37
2019-05-12T03:49:05.597Z,88.01
2019-05-12T03:51:35.243Z,88.31
2019-05-12T03:54:04.917Z,88.56
2019-05-12T03:56:34.783Z,88.74
2019-05-12T03:59:05.069Z,88.50
2019-05-12T04:01:36.329Z,88.52
2019-05-12T04:04:06.096Z,88.44
2019-05-12T04:06:35.257Z,88.64
2019-05-12T04:09:06.727Z,88.35
2019-05-12T04:11:35.967Z,88.61
2019-05-12T04:14:05.793Z,89.32
2019-05-12T04:16:36.358Z,88.93
2019-05-12T04:19:05.938Z,88.76
2019-05-12T04:21:35.432Z,88.86
2019-05-12T04:24:05.988Z,88.49
2019-05-12T04:26:36.657Z,88.70
2019-05-12T04:29:06.184Z,88.74
2019-05-12T04:31:36.025Z,87.74
2019-05-12T04:34:05.448Z,86.74
2019-05-12T04:36:35.753Z,87.34
2019-05-12T04:39:07.221Z,86.76
2019-05-12T04:41:36.471Z,84.88
2019-05-12T04:44:06.150Z,84.51
2019-05-12T04:46:36.884Z,84.11
2019-05-12T04:49:05.892Z,84.96
2019-05-12T04:51:35.363Z,84.96
2019-05-12T04:54:05.719Z,84.25
2019-05-12T04:56:36.021Z,84.37
2019-05-12T04:59:05.474Z,84.04
2019-05-12T05:01:35.018Z,83.89
2019-05-12T05:04:05.333Z,83.19
2019-05-12T05:06:34.815Z,81.79
2019-05-12T05:09:05.249Z,83.05
2019-05-12T05:11:34.660Z,81.63
2019-05-12T05:14:04.365Z,81.40
2019-05-12T05:16:34.599Z,80.77
2019-05-12T05:19:03.874Z,80.75
2019-05-12T05:21:34.532Z,80.18
2019-05-12T05:24:03.891Z,79.25
2019-05-12T05:26:37.313Z,77.93
2019-05-12T05:29:04.742Z,73.18
2019-05-12T05:31:33.946Z,62.47
2019-05-12T05:34:04.750Z,59.99
2019-05-12T05:36:34.664Z,58.22
2019-05-12T05:39:07.312Z,58.81
2019-05-12T05:41:40.186Z,54.16
2019-05-12T05:44:07.042Z,56.43
2019-05-12T05:46:38.983Z,55.50
2019-05-12T05:49:06.644Z,54.24
2019-05-12T05:51:39.630Z,52.21
2019-05-12T05:54:06.095Z,56.23
2019-05-12T05:59:31.264Z,52.89
2019-05-12T06:01:54.851Z,53.35
2019-05-12T06:04:23.940Z,53.63
2019-05-12T06:06:55.714Z,52.69
2019-05-12T06:09:23.703Z,49.80
2019-05-12T06:11:54.195Z,49.07
2019-05-12T06:14:23.588Z,52.62
2019-05-12T06:16:53.787Z,48.76
2019-05-12T06:19:25.985Z,47.74
2019-05-12T06:21:53.604Z,48.15
2019-05-12T06:24:23.875Z,48.09
2019-05-12T06:26:59.538Z,51.91
2019-05-12T06:29:25.145Z,48.41
2019-05-12T06:31:54.405Z,46.84
2019-05-12T06:34:23.823Z,49.53
2019-05-12T06:36:57.037Z,49.32
2019-05-12T06:39:23.648Z,47.27
2019-05-12T06:41:55.192Z,45.49
2019-05-12T06:44:24.030Z,45.25
2019-05-12T06:47:02.454Z,43.07
2019-05-12T06:49:24.595Z,48.72
2019-05-12T06:52:01.447Z,51.00
2019-05-12T06:54:25.486Z,52.96
2019-05-12T06:56:57.930Z,54.17
2019-05-12T06:59:25.960Z,52.53
2019-05-12T07:02:00.197Z,53.14
2019-05-12T07:04:25.407Z,52.73
2019-05-12T07:06:56.153Z,54.20
2019-05-12T07:09:28.726Z,53.24
2019-05-12T07:12:02.676Z,51.70
2019-05-12T07:14:34.533Z,52.25
2019-05-12T07:17:10.192Z,52.87
2019-05-12T07:19:39.067Z,51.01
2019-05-12T07:22:19.881Z,53.28
2019-05-12T07:24:40.869Z,52.20
2019-05-12T07:27:10.070Z,53.63
2019-05-12T07:29:39.071Z,50.95
2019-05-12T07:32:16.536Z,51.22
2019-05-12T07:34:38.937Z,50.95
2019-05-12T07:37:08.008Z,50.86
2019-05-12T07:39:47.800Z,48.48
2019-05-12T07:42:13.393Z,49.39
2019-05-12T07:44:45.220Z,48.52
2019-05-12T07:47:14.224Z,48.02
2019-05-12T07:49:44.091Z,50.98
2019-05-12T07:52:13.787Z,49.31
2019-05-12T07:54:44.469Z,50.59
2019-05-12T07:57:17.321Z,50.63
2019-05-12T07:59:45.907Z,51.70
2019-05-12T08:02:14.828Z,51.22
2019-05-12T08:04:44.088Z,49.28
2019-05-12T08:07:19.742Z,48.71
2019-05-12T08:09:53.630Z,48.84
2019-05-12T08:12:23.797Z,51.13
2019-05-12T08:14:54.213Z,50.57
2019-05-12T08:17:24.608Z,47.25
2019-05-12T08:19:54.106Z,47.46
2019-05-12T08:22:25.030Z,45.11
2019-05-12T08:24:53.853Z,46.55
2019-05-12T08:27:23.413Z,46.54
2019-05-12T08:30:00.821Z,47.81
2019-05-12T08:32:23.414Z,48.16
2019-05-12T08:34:58.639Z,45.64
2019-05-12T08:37:27.464Z,47.52
2019-05-12T08:40:03.439Z,46.99
2019-05-12T08:42:27.232Z,47.45
2019-05-12T08:44:57.374Z,46.64
2019-05-12T08:47:28.997Z,46.41
2019-05-12T08:49:58.722Z,47.07
2019-05-12T08:52:30.600Z,46.71
2019-05-12T08:54:58.565Z,45.01
2019-05-12T08:57:34.925Z,43.29
2019-05-12T09:00:06.707Z,43.08
2019-05-12T09:02:34.297Z,44.63
2019-05-12T09:05:04.707Z,44.88
2019-05-12T09:07:35.804Z,44.78
2019-05-12T09:10:05.317Z,46.17
2019-05-12T09:12:34.159Z,45.89
2019-05-12T09:15:04.756Z,45.47
2019-05-12T09:17:37.245Z,48.25
2019-05-12T09:20:08.358Z,43.43
2019-05-12T09:22:35.226Z,43.73
2019-05-12T09:25:08.237Z,44.42
2019-05-12T09:27:39.618Z,43.18
2019-05-12T09:30:09.634Z,42.78
2019-05-12T09:32:39.182Z,43.70
2019-05-12T09:35:07.804Z,43.83
2019-05-12T09:37:40.078Z,43.22
2019-05-12T09:40:08.401Z,43.87
2019-05-12T09:42:37.189Z,43.19
2019-05-12T09:45:10.339Z,40.57
2019-05-12T09:47:40.416Z,40.85
2019-05-12T09:50:14.718Z,39.64
2019-05-12T09:52:39.918Z,38.66
2019-05-12T09:55:09.397Z,40.58
2019-05-12T10:04:19.557Z,39.56
2019-05-12T10:06:48.671Z,38.24
2019-05-12T10:09:19.926Z,37.16
2019-05-12T10:11:51.905Z,38.14
2019-05-12T10:14:18.825Z,36.38
2019-05-12T10:16:49.732Z,35.60
2019-05-12T10:19:18.350Z,35.55
2019-05-12T10:21:49.130Z,36.81
2019-05-12T10:24:18.094Z,37.30
2019-05-12T10:26:49.422Z,39.61
2019-05-12T10:29:20.762Z,40.02
2019-05-12T10:31:48.621Z,40.77
2019-05-12T10:37:47.362Z,40.70
2019-05-12T10:40:16.845Z,41.26
2019-05-12T10:42:49.336Z,39.85
2019-05-12T10:45:20.497Z,37.82
2019-05-12T10:47:47.772Z,37.14
2019-05-12T10:50:17.700Z,35.34
2019-05-12T10:52:46.653Z,38.26
2019-05-12T10:55:15.831Z,39.67
2019-05-12T10:57:47.276Z,39.90
2019-05-12T11:00:19.615Z,39.75
2019-05-12T11:02:49.294Z,38.83
2019-05-12T11:05:26.086Z,39.87
2019-05-12T11:08:06.545Z,37.33
2019-05-12T11:14:20.339Z,40.55
2019-05-12T11:17:02.154Z,37.91
2019-05-12T11:19:29.576Z,37.38
2019-05-12T11:22:03.513Z,38.02
2019-05-12T11:24:33.725Z,37.85
2019-05-12T11:27:04.979Z,36.76
2019-05-12T11:29:45.664Z,39.14
2019-05-12T11:32:06.697Z,35.64
2019-05-12T11:34:35.772Z,35.69
2019-05-12T11:37:05.197Z,34.74
2019-05-12T11:39:44.521Z,34.41
2019-05-12T11:48:05.945Z,35.23
2019-05-12T11:50:34.805Z,34.07
2019-05-12T11:53:04.399Z,37.94
2019-05-12T11:55:34.956Z,33.50
2019-05-12T11:58:11.278Z,35.17
2019-05-12T12:00:37.306Z,33.54
2019-05-12T12:03:12.951Z,34.52
2019-05-12T12:05:39.491Z,35.66
2019-05-12T12:08:48.086Z,39.23
2019-05-12T12:11:24.289Z,36.81
2019-05-12T12:14:40.233Z,35.23
2019-05-12T12:24:13.830Z,38.68
2019-05-12T12:26:44.559Z,37.60
2019-05-12T12:29:13.796Z,36.90
2019-05-12T12:31:48.614Z,37.63
2019-05-12T12:34:23.539Z,38.31
2019-05-12T12:36:48.341Z,39.39
2019-05-12T12:39:17.656Z,36.15
2019-05-12T12:41:58.399Z,36.14
2019-05-12T12:44:17.632Z,33.80
2019-05-12T12:46:51.288Z,35.81
2019-05-12T12:49:18.050Z,36.84
2019-05-12T12:51:47.057Z,38.76
2019-05-12T12:54:15.964Z,37.56
2019-05-12T12:56:44.826Z,36.41
2019-05-12T12:59:14.661Z,35.94
2019-05-12T13:01:44.268Z,35.51
2019-05-12T13:04:13.399Z,35.69
2019-05-12T13:06:43.724Z,35.45
2019-05-12T13:09:18.263Z,35.77
2019-05-12T13:11:44.438Z,36.76
2019-05-12T13:14:13.676Z,37.00
2019-05-12T13:16:43.658Z,37.85
2019-05-12T13:19:16.897Z,40.97
2019-05-12T13:21:43.955Z,37.19
2019-05-12T13:24:12.899Z,37.24
2019-05-12T13:26:43.640Z,35.35
2019-05-12T13:29:13.390Z,36.35
2019-05-12T13:31:46.517Z,36.75
2019-05-12T13:34:14.423Z,37.15
2019-05-12T13:36:44.175Z,37.50
2019-05-12T13:39:17.491Z,37.50
2019-05-12T13:41:50.459Z,36.51
2019-05-12T13:44:17.643Z,36.16
2019-05-12T13:46:48.909Z,34.89
2019-05-12T13:49:17.210Z,35.49
2019-05-12T13:51:48.330Z,35.43
2019-05-12T13:54:20.113Z,35.38
2019-05-12T13:56:47.977Z,37.60
2019-05-12T13:59:21.004Z,33.25
2019-05-12T14:05:31.754Z,35.10
2019-05-12T14:11:29.219Z,35.42
2019-05-12T14:13:58.273Z,34.36
2019-05-12T14:16:27.169Z,34.41
2019-05-12T14:18:59.212Z,33.62
2019-05-12T14:21:26.855Z,34.25
2019-05-12T14:23:56.500Z,37.79
2019-05-12T14:26:26.107Z,34.46
2019-05-12T14:28:54.944Z,35.15
2019-05-12T14:31:30.129Z,36.09
2019-05-12T14:33:54.430Z,36.00
2019-05-12T14:36:26.714Z,37.88
2019-05-12T14:38:54.062Z,39.10
2019-05-12T14:41:26.491Z,32.67
2019-05-12T14:44:01.414Z,35.78
2019-05-12T14:46:24.269Z,33.87
2019-05-12T14:48:54.257Z,35.66
2019-05-12T14:51:24.586Z,32.99
2019-05-12T14:53:53.678Z,32.80
2019-05-12T14:56:23.395Z,30.75
2019-05-12T14:58:56.428Z,29.93
2019-05-12T15:04:51.119Z,32.66
2019-05-12T15:07:20.163Z,33.67
2019-05-12T15:09:55.710Z,33.78
2019-05-12T15:12:19.633Z,34.27
2019-05-12T15:14:48.431Z,35.21
2019-05-12T15:17:22.393Z,35.42
2019-05-12T15:22:24.522Z,34.56
2019-05-12T15:24:58.729Z,28.52
2019-05-12T15:27:41.075Z,23.34
2019-05-12T15:29:59.416Z,23.61
2019-05-12T15:32:27.291Z,23.44
2019-05-12T15:34:56.136Z,23.59
2019-05-12T15:37:29.050Z,29.29
2019-05-12T15:40:23.670Z,29.00
2019-05-12T15:42:55.050Z,29.94
2019-05-12T15:45:43.811Z,21.90
2019-05-12T15:48:14.690Z,22.59
2019-05-12T15:54:14.380Z,23.65
2019-05-12T15:56:42.362Z,22.55
2019-05-12T15:59:11.269Z,27.57
2019-05-12T16:01:40.260Z,32.51
2019-05-12T16:04:11.854Z,34.14
2019-05-12T16:06:44.703Z,33.31
2019-05-12T16:09:10.560Z,33.04
2019-05-12T16:11:39.444Z,32.81
2019-05-12T16:14:08.366Z,33.23
2019-05-12T16:16:42.456Z,33.38
2019-05-12T16:19:09.164Z,32.86
2019-05-12T16:21:38.094Z,32.88
2019-05-12T16:24:10.937Z,32.75
2019-05-12T16:26:42.915Z,33.87
2019-05-12T16:29:08.211Z,33.45
2019-05-12T16:31:39.385Z,32.07
2019-05-12T16:34:07.640Z,32.64
2019-05-12T16:36:41.101Z,33.19
2019-05-12T16:39:08.501Z,33.24
2019-05-12T16:41:37.451Z,33.23
2019-05-12T16:44:09.534Z,34.25
2019-05-12T16:46:36.853Z,35.02
2019-05-12T16:49:05.725Z,35.20
2019-05-12T16:51:34.951Z,33.05
2019-05-12T16:54:03.911Z,33.21
2019-05-12T16:56:33.939Z,33.14
2019-05-12T16:59:07.284Z,33.89
2019-05-12T17:01:34.576Z,34.87
2019-05-12T17:04:04.315Z,34.76
2019-05-12T17:06:36.786Z,35.89
2019-05-12T17:09:06.206Z,34.77
2019-05-12T17:11:37.216Z,34.64
2019-05-12T17:14:05.831Z,33.57
2019-05-12T17:16:41.939Z,33.49
2019-05-12T17:19:10.213Z,33.29
2019-05-12T17:21:38.122Z,33.29
2019-05-12T17:24:07.121Z,31.69
2019-05-12T17:26:36.057Z,32.32
2019-05-12T17:29:05.078Z,32.88
2019-05-12T17:31:34.268Z,34.33
2019-05-12T17:34:08.161Z,34.86
2019-05-12T17:36:34.554Z,36.15
2019-05-12T17:39:04.801Z,35.78
2019-05-12T17:45:18.658Z,37.05
2019-05-12T17:47:45.435Z,37.07
2019-05-12T17:50:14.431Z,37.58
2019-05-12T17:52:45.160Z,38.22
2019-05-12T17:55:14.938Z,38.69
2019-05-12T17:57:44.464Z,39.40
2019-05-12T18:00:14.623Z,39.57
2019-05-12T18:02:49.406Z,41.71
2019-05-12T18:05:17.161Z,39.83
2019-05-12T18:07:50.817Z,40.01
2019-05-12T18:10:17.039Z,40.58
2019-05-12T18:12:46.085Z,40.91
2019-05-12T18:15:15.595Z,41.16
2019-05-12T18:17:49.625Z,41.81
2019-05-12T18:20:15.690Z,41.40
2019-05-12T18:22:45.243Z,41.78
2019-05-12T18:25:21.948Z,40.04
2019-05-12T18:27:50.605Z,40.26
2019-05-12T18:30:34.499Z,40.25
2019-05-12T18:33:05.027Z,41.30
2019-05-12T18:35:34.092Z,42.42
2019-05-12T18:38:07.941Z,42.30
2019-05-12T18:40:34.738Z,42.31
2019-05-12T18:43:03.982Z,42.04
2019-05-12T18:45:34.082Z,43.14
2019-05-12T18:48:10.608Z,42.02
2019-05-12T18:50:34.371Z,42.42
2019-05-12T18:53:03.375Z,42.41
2019-05-12T18:55:35.813Z,42.88
2019-05-12T18:58:04.310Z,42.74
2019-05-12T19:00:33.907Z,44.10
2019-05-12T19:03:06.140Z,43.22
2019-05-12T19:05:34.542Z,45.33
2019-05-12T19:08:03.791Z,45.47
2019-05-12T19:10:33.424Z,43.58
2019-05-12T19:13:06.449Z,44.09
2019-05-12T19:15:33.523Z,43.84
2019-05-12T19:18:03.729Z,43.90
2019-05-12T19:20:36.336Z,43.97
2019-05-12T19:23:03.759Z,44.23
2019-05-12T19:25:35.924Z,44.23
2019-05-12T19:28:07.904Z,45.11
2019-05-12T19:30:34.495Z,45.33
2019-05-12T19:33:06.396Z,44.82
2019-05-12T19:35:37.954Z,45.23
2019-05-12T19:38:07.823Z,46.52
2019-05-12T19:44:10.240Z,47.28
2019-05-12T19:47:02.286Z,48.13
2019-05-12T19:49:46.646Z,48.48
2019-05-12T19:52:04.240Z,49.42
2019-05-12T19:54:36.783Z,49.43
2019-05-12T19:57:04.851Z,50.95
2019-05-12T19:59:34.229Z,50.77
2019-05-12T20:05:34.363Z,52.14
2019-05-12T20:08:06.862Z,52.70
2019-05-12T20:10:58.372Z,52.80
2019-05-12T20:13:29.711Z,54.27
2019-05-12T20:15:58.418Z,54.77
2019-05-12T20:18:27.614Z,55.91
2019-05-12T20:21:29.942Z,55.92
2019-05-12T20:23:59.077Z,56.14
2019-05-12T20:26:33.074Z,57.00
2019-05-12T20:28:59.092Z,56.74
2019-05-12T20:31:28.082Z,57.16
2019-05-12T20:34:04.396Z,56.98
2019-05-12T20:36:28.022Z,57.25
2019-05-12T20:38:56.882Z,57.27
2019-05-12T20:41:26.801Z,58.14
2019-05-12T20:47:23.560Z,58.42
2019-05-12T20:49:52.895Z,58.94
2019-05-12T20:52:23.776Z,59.56
2019-05-12T20:54:55.336Z,60.42
2019-05-12T20:57:27.258Z,60.28
2019-05-12T21:00:04.742Z,61.02
2019-05-12T21:02:29.296Z,61.79
2019-05-12T21:05:00.841Z,61.91
2019-05-12T21:07:28.861Z,62.65
2019-05-12T21:09:58.289Z,63.55
2019-05-12T21:12:27.793Z,63.23
2019-05-12T21:15:12.372Z,63.58
2019-05-12T21:17:39.704Z,63.64
2019-05-12T21:19:59.482Z,64.36
2019-05-12T21:22:28.674Z,64.69
2019-05-12T21:24:57.509Z,64.71
2019-05-12T21:27:26.716Z,64.68
2019-05-12T21:30:00.775Z,65.43
2019-05-12T21:32:26.172Z,65.39
2019-05-12T21:34:57.856Z,65.85
2019-05-12T21:37:45.710Z,66.08
2019-05-12T21:40:14.675Z,65.68
2019-05-12T21:42:44.592Z,65.61
2019-05-12T21:45:14.513Z,66.26
2019-05-12T21:47:44.537Z,66.43
2019-05-12T21:50:14.811Z,66.37
2019-05-12T21:52:44.607Z,66.57
2019-05-12T21:55:21.789Z,67.33
2019-05-12T21:57:44.741Z,66.99
2019-05-12T22:00:23.726Z,66.93
2019-05-12T22:02:53.409Z,66.81
2019-05-12T22:05:47.196Z,67.31
2019-05-12T22:07:54.637Z,67.52
2019-05-12T22:10:28.975Z,67.44
2019-05-12T22:12:54.384Z,67.91
2019-05-12T22:15:28.542Z,68.66
2019-05-12T22:18:04.808Z,68.99
2019-05-12T22:20:35.991Z,68.40
2019-05-12T22:23:11.823Z,69.41
2019-05-12T22:25:43.334Z,69.52
2019-05-12T22:28:13.472Z,68.70
2019-05-12T22:30:43.827Z,69.58
2019-05-12T22:33:13.847Z,69.98
2019-05-12T22:35:44.290Z,70.80
2019-05-12T22:38:19.024Z,70.98
2019-05-12T22:40:44.024Z,71.14
2019-05-12T22:43:14.217Z,70.85
2019-05-12T22:45:44.656Z,71.02
2019-05-12T22:48:14.338Z,70.74
2019-05-12T22:50:43.598Z,71.74
2019-05-12T22:53:13.439Z,72.41
2019-05-12T22:55:42.561Z,72.13
2019-05-12T22:58:18.231Z,71.73
2019-05-12T23:00:44.428Z,72.01
2019-05-12T23:03:14.956Z,71.59
2019-05-12T23:05:43.677Z,71.73
2019-05-12T23:08:14.055Z,71.96
2019-05-12T23:10:51.351Z,72.83
2019-05-12T23:13:13.932Z,73.01
2019-05-12T23:15:47.541Z,73.50
2019-05-12T23:18:13.831Z,73.34
2019-05-12T23:20:43.827Z,73.93
2019-05-12T23:23:15.378Z,73.70
2019-05-12T23:25:45.426Z,74.11
2019-05-12T23:28:14.625Z,74.22
2019-05-12T23:30:48.320Z,74.54
2019-05-12T23:33:14.334Z,75.41
2019-05-12T23:35:44.311Z,75.25
2019-05-12T23:38:18.889Z,75.32
2019-05-12T23:40:44.208Z,75.45
2019-05-12T23:43:14.522Z,75.61
2019-05-12T23:45:44.431Z,75.24
2019-05-12T23:48:14.382Z,75.33
2019-05-12T23:50:43.945Z,75.99
2019-05-12T23:53:13.973Z,75.52
2019-05-12T23:55:43.785Z,75.73
2019-05-12T23:58:14.425Z,75.85
